createdAt,value
2023-02-09T00:01:26.821Z,67.93
2023-02-09T00:03:53.637Z,68.25
2023-02-09T00:06:21.816Z,68.36
2023-02-09T00:08:48.345Z,68.74
2023-02-09T00:11:20.142Z,68.85
2023-02-09T00:13:46.795Z,68.59
2023-02-09T00:16:13.786Z,68.41
2023-02-09T00:18:40.509Z,68.92
2023-02-09T00:21:10.721Z,69.06
2023-02-09T00:23:39.565Z,69.17
2023-02-09T00:26:09.720Z,68.98
2023-02-09T00:28:36.472Z,68.52
2023-02-09T00:31:10.864Z,68.96
2023-02-09T00:33:40.557Z,69.82
2023-02-09T00:36:11.437Z,69.33
2023-02-09T00:38:38.021Z,69.01
2023-02-09T00:41:04.789Z,69.46
2023-02-09T00:43:32.110Z,69.24
2023-02-09T00:45:58.597Z,69.79
2023-02-09T00:48:25.553Z,70.08
2023-02-09T00:50:52.892Z,69.93
2023-02-09T00:53:21.386Z,69.98
2023-02-09T00:55:49.253Z,69.66
2023-02-09T00:58:17.112Z,69.77
2023-02-09T01:00:44.552Z,70.22
2023-02-09T01:03:12.019Z,70.11
2023-02-09T01:05:40.143Z,70.17
2023-02-09T01:08:06.722Z,70.14
2023-02-09T01:10:33.281Z,69.69
2023-02-09T01:12:59.887Z,70.06
2023-02-09T01:15:28.921Z,69.82
2023-02-09T01:17:55.377Z,70.35
2023-02-09T01:20:22.019Z,70.21
2023-02-09T01:22:48.439Z,70.15
2023-02-09T01:25:14.911Z,69.81
2023-02-09T01:27:42.365Z,69.62
2023-02-09T01:30:09.758Z,69.73
2023-02-09T01:32:37.189Z,69.90
2023-02-09T01:35:03.829Z,70.13
2023-02-09T01:37:30.372Z,70.25
2023-02-09T01:39:56.839Z,70.02
2023-02-09T01:42:23.479Z,69.86
2023-02-09T01:44:49.986Z,70.22
2023-02-09T01:47:19.120Z,70.73
2023-02-09T01:49:49.889Z,70.08
2023-02-09T01:52:21.071Z,69.76
2023-02-09T01:54:56.810Z,69.35
2023-02-09T01:57:37.225Z,69.44
2023-02-09T02:00:10.982Z,69.43
2023-02-09T02:02:47.844Z,69.31
2023-02-09T02:05:15.273Z,69.26
2023-02-09T02:08:19.549Z,69.13
2023-02-09T02:10:46.439Z,69.46
2023-02-09T02:13:13.119Z,69.63
2023-02-09T02:15:59.745Z,69.77
2023-02-09T02:18:38.623Z,69.64
2023-02-09T02:21:33.771Z,69.97
2023-02-09T02:24:06.332Z,70.02
2023-02-09T02:26:48.859Z,69.79
2023-02-09T02:29:36.895Z,70.58
2023-02-09T02:32:26.314Z,70.51
2023-02-09T02:35:08.537Z,70.26
2023-02-09T02:38:19.772Z,70.48
2023-02-09T02:41:03.769Z,70.60
2023-02-09T02:43:43.354Z,70.24
2023-02-09T02:46:20.671Z,70.44
2023-02-09T02:48:59.432Z,70.63
2023-02-09T02:51:42.239Z,70.19
2023-02-09T02:54:15.670Z,71.17
2023-02-09T02:56:50.958Z,71.36
2023-02-09T02:59:22.959Z,71.14
2023-02-09T03:02:06.306Z,71.19
2023-02-09T03:04:35.491Z,71.39
2023-02-09T03:07:05.549Z,72.02
2023-02-09T03:09:32.058Z,71.93
2023-02-09T03:12:15.448Z,71.74
2023-02-09T03:14:49.493Z,72.04
2023-02-09T03:17:29.036Z,71.99
2023-02-09T03:20:02.407Z,71.50
2023-02-09T03:22:36.849Z,71.64
2023-02-09T03:25:12.751Z,71.49
2023-02-09T03:27:55.517Z,71.16
2023-02-09T03:30:23.433Z,71.27
2023-02-09T03:32:56.111Z,71.09
2023-02-09T03:35:26.326Z,70.71
2023-02-09T03:37:52.815Z,70.68
2023-02-09T03:40:19.765Z,70.96
2023-02-09T03:42:46.343Z,70.25
2023-02-09T03:45:12.979Z,70.38
2023-02-09T03:47:39.387Z,69.96
2023-02-09T03:50:07.345Z,70.52
2023-02-09T03:52:33.974Z,70.07
2023-02-09T03:55:00.345Z,70.39
2023-02-09T03:57:26.795Z,69.93
2023-02-09T03:59:53.180Z,70.42
2023-02-09T04:02:19.648Z,70.27
2023-02-09T04:04:46.142Z,70.33
2023-02-09T04:07:13.866Z,70.72
2023-02-09T04:09:40.422Z,70.35
2023-02-09T04:12:07.019Z,70.99
2023-02-09T04:14:33.417Z,70.82
2023-02-09T04:16:59.833Z,70.69
2023-02-09T04:19:26.277Z,70.76
2023-02-09T04:21:52.661Z,70.40
2023-02-09T04:24:26.023Z,70.81
2023-02-09T04:26:52.441Z,70.40
2023-02-09T04:29:18.885Z,70.71
2023-02-09T04:31:45.390Z,70.58
2023-02-09T04:34:11.818Z,71.24
2023-02-09T04:36:38.230Z,71.16
2023-02-09T04:39:04.629Z,71.31
2023-02-09T04:41:31.035Z,71.27
2023-02-09T04:43:57.498Z,71.03
2023-02-09T04:46:23.979Z,70.95
2023-02-09T04:48:50.456Z,71.03
2023-02-09T04:51:16.917Z,70.54
2023-02-09T04:53:43.361Z,70.46
2023-02-09T04:56:15.119Z,69.79
2023-02-09T04:59:00.770Z,69.66
2023-02-09T05:01:27.425Z,69.82
2023-02-09T05:03:53.941Z,68.94
2023-02-09T05:06:20.966Z,69.61
2023-02-09T05:08:48.562Z,69.50
2023-02-09T05:11:15.561Z,69.45
2023-02-09T05:13:42.425Z,69.85
2023-02-09T05:16:13.362Z,70.29
2023-02-09T05:18:39.991Z,69.73
2023-02-09T05:21:06.549Z,69.95
2023-02-09T05:23:33.527Z,70.86
2023-02-09T05:26:00.204Z,70.68
2023-02-09T05:28:26.748Z,70.50
2023-02-09T05:30:56.171Z,70.86
2023-02-09T05:33:24.409Z,70.46
2023-02-09T05:35:52.335Z,70.70
2023-02-09T05:38:19.217Z,70.65
2023-02-09T05:40:45.652Z,70.74
2023-02-09T05:43:12.249Z,71.50
2023-02-09T05:45:39.017Z,71.74
2023-02-09T05:48:05.563Z,71.48
2023-02-09T05:50:32.112Z,71.69
2023-02-09T05:52:59.691Z,71.66
2023-02-09T05:55:26.216Z,71.88
2023-02-09T05:57:52.624Z,71.00
2023-02-09T06:00:19.367Z,71.37
2023-02-09T06:02:45.873Z,71.47
2023-02-09T06:05:12.468Z,71.03
2023-02-09T06:07:38.911Z,70.70
2023-02-09T06:10:05.473Z,70.58
2023-02-09T06:12:31.851Z,70.52
2023-02-09T06:14:58.226Z,71.08
2023-02-09T06:17:24.689Z,70.76
2023-02-09T06:19:51.110Z,70.33
2023-02-09T06:22:17.549Z,70.39
2023-02-09T06:24:43.936Z,70.27
2023-02-09T06:27:11.787Z,70.11
2023-02-09T06:29:38.157Z,70.49
2023-02-09T06:32:04.877Z,70.20
2023-02-09T06:34:31.329Z,70.05
2023-02-09T06:36:57.783Z,70.03
2023-02-09T06:39:24.398Z,69.87
2023-02-09T06:41:51.854Z,69.96
2023-02-09T06:44:18.801Z,69.98
2023-02-09T06:46:45.241Z,70.04
2023-02-09T06:49:11.631Z,69.94
2023-02-09T06:51:38.241Z,70.45
2023-02-09T06:54:04.851Z,69.89
2023-02-09T06:56:31.309Z,69.80
2023-02-09T06:58:57.877Z,69.75
2023-02-09T07:01:24.409Z,69.66
2023-02-09T07:03:50.883Z,70.15
2023-02-09T07:06:19.194Z,70.01
2023-02-09T07:08:46.403Z,69.44
2023-02-09T07:11:15.680Z,69.93
2023-02-09T07:13:42.663Z,69.81
2023-02-09T07:16:11.287Z,69.60
2023-02-09T07:18:38.527Z,69.53
2023-02-09T07:21:08.534Z,69.35
2023-02-09T07:23:35.384Z,69.74
2023-02-09T07:26:07.009Z,70.16
2023-02-09T07:28:35.408Z,70.95
2023-02-09T07:31:04.875Z,71.22
2023-02-09T07:33:31.895Z,71.20
2023-02-09T07:35:58.575Z,71.73
2023-02-09T07:38:25.262Z,71.79
2023-02-09T07:40:51.811Z,72.04
2023-02-09T07:43:18.192Z,72.52
2023-02-09T07:45:44.833Z,72.68
2023-02-09T07:48:11.725Z,72.78
2023-02-09T07:50:38.339Z,73.01
2023-02-09T07:53:04.750Z,72.96
2023-02-09T07:55:31.342Z,72.92
2023-02-09T07:57:57.800Z,73.13
2023-02-09T08:00:25.465Z,73.21
2023-02-09T08:02:52.533Z,72.53
2023-02-09T08:05:37.282Z,72.98
2023-02-09T08:08:03.746Z,72.79
2023-02-09T08:10:30.212Z,72.81
2023-02-09T08:13:02.516Z,72.35
2023-02-09T08:15:34.649Z,72.50
2023-02-09T08:18:04.620Z,72.60
2023-02-09T08:20:32.143Z,72.92
2023-02-09T08:23:18.507Z,72.58
2023-02-09T08:25:45.129Z,72.79
2023-02-09T08:28:11.921Z,72.48
2023-02-09T08:30:38.347Z,72.23
2023-02-09T08:33:04.748Z,72.53
2023-02-09T08:35:31.526Z,72.79
2023-02-09T08:38:03.157Z,72.93
2023-02-09T08:40:30.740Z,72.84
2023-02-09T08:42:57.158Z,72.54
2023-02-09T08:45:24.459Z,72.50
2023-02-09T08:47:50.974Z,72.61
2023-02-09T08:50:17.410Z,72.67
2023-02-09T08:52:43.922Z,72.56
2023-02-09T08:55:10.464Z,72.98
2023-02-09T08:57:44.015Z,72.90
2023-02-09T09:00:11.940Z,73.00
2023-02-09T09:02:38.353Z,72.91
2023-02-09T09:05:05.054Z,72.47
2023-02-09T09:07:31.586Z,72.30
2023-02-09T09:09:57.976Z,71.81
2023-02-09T09:12:24.390Z,72.03
2023-02-09T09:14:51.155Z,71.99
2023-02-09T09:17:17.583Z,71.79
2023-02-09T09:19:44.037Z,71.54
2023-02-09T09:22:10.451Z,71.64
2023-02-09T09:24:40.593Z,71.63
2023-02-09T09:27:08.862Z,71.46
2023-02-09T09:29:35.926Z,71.04
2023-02-09T09:32:02.740Z,70.79
2023-02-09T09:34:29.294Z,70.74
2023-02-09T09:36:55.675Z,70.42
2023-02-09T09:39:22.148Z,70.11
2023-02-09T09:41:53.094Z,69.89
2023-02-09T09:44:30.644Z,70.03
2023-02-09T09:47:01.168Z,69.57
2023-02-09T09:49:31.386Z,69.77
2023-02-09T09:52:13.201Z,68.70
2023-02-09T09:54:41.390Z,68.67
2023-02-09T09:57:25.030Z,68.47
2023-02-09T09:59:53.156Z,68.74
2023-02-09T10:02:29.193Z,67.80
2023-02-09T10:05:06.846Z,68.20
2023-02-09T10:07:34.433Z,67.65
2023-02-09T10:10:10.979Z,67.03
2023-02-09T10:12:40.696Z,66.89
2023-02-09T10:15:32.694Z,65.05
2023-02-09T10:17:59.785Z,65.02
2023-02-09T10:20:45.974Z,64.80
2023-02-09T10:23:37.509Z,64.59
2023-02-09T10:26:04.012Z,63.56
2023-02-09T10:28:37.627Z,62.59
2023-02-09T10:31:11.330Z,61.88
2023-02-09T10:33:42.951Z,62.16
2023-02-09T10:36:24.617Z,61.58
2023-02-09T10:38:52.273Z,61.54
2023-02-09T10:41:21.035Z,61.48
2023-02-09T10:43:52.537Z,60.17
2023-02-09T10:46:20.837Z,59.04
2023-02-09T10:48:47.678Z,58.56
2023-02-09T10:51:17.087Z,58.68
2023-02-09T10:53:55.595Z,58.19
2023-02-09T10:56:25.372Z,57.23
2023-02-09T10:59:03.360Z,57.66
2023-02-09T11:01:41.879Z,57.02
2023-02-09T11:04:21.950Z,56.86
2023-02-09T11:06:54.293Z,56.46
2023-02-09T11:09:28.035Z,55.94
2023-02-09T11:11:54.827Z,55.16
2023-02-09T11:14:21.948Z,55.34
2023-02-09T11:17:15.840Z,55.27
2023-02-09T11:20:05.014Z,54.13
2023-02-09T11:22:49.864Z,54.05
2023-02-09T11:25:49.802Z,53.45
2023-02-09T11:28:42.188Z,53.17
2023-02-09T11:31:24.185Z,52.82
2023-02-09T11:34:05.821Z,51.92
2023-02-09T11:36:41.066Z,50.86
2023-02-09T11:39:25.042Z,50.72
2023-02-09T11:42:29.101Z,51.39
2023-02-09T11:45:02.559Z,49.98
2023-02-09T11:47:42.094Z,50.10
2023-02-09T11:50:10.757Z,50.09
2023-02-09T11:52:48.915Z,49.02
2023-02-09T11:55:27.685Z,49.58
2023-02-09T11:58:15.606Z,49.43
2023-02-09T12:01:13.315Z,49.09
2023-02-09T12:03:55.925Z,49.53
2023-02-09T12:06:24.045Z,48.14
2023-02-09T12:09:08.693Z,48.04
2023-02-09T12:11:50.286Z,46.89
2023-02-09T12:14:47.126Z,47.26
2023-02-09T12:18:12.971Z,48.07
2023-02-09T12:20:56.846Z,47.10
2023-02-09T12:23:43.451Z,46.87
2023-02-09T12:26:12.654Z,46.71
2023-02-09T12:28:40.555Z,46.43
2023-02-09T12:31:14.870Z,45.93
2023-02-09T12:33:47.396Z,45.77
2023-02-09T12:36:13.797Z,45.89
2023-02-09T12:38:56.762Z,45.83
2023-02-09T12:41:40.925Z,44.21
2023-02-09T12:44:10.402Z,44.28
2023-02-09T12:46:52.749Z,44.42
2023-02-09T12:49:21.712Z,43.42
2023-02-09T12:51:51.655Z,43.89
2023-02-09T12:54:54.720Z,43.01
2023-02-09T12:57:22.161Z,41.78
2023-02-09T13:00:09.557Z,41.88
2023-02-09T13:02:49.514Z,41.39
2023-02-09T13:05:23.497Z,41.42
2023-02-09T13:08:05.907Z,41.01
2023-02-09T13:10:41.162Z,40.78
2023-02-09T13:13:19.290Z,41.39
2023-02-09T13:16:00.909Z,41.12
2023-02-09T13:18:37.891Z,40.61
2023-02-09T13:21:15.934Z,40.09
2023-02-09T13:24:03.284Z,40.75
2023-02-09T13:26:34.839Z,41.13
2023-02-09T13:29:22.163Z,40.51
2023-02-09T13:31:54.621Z,41.65
2023-02-09T13:34:30.343Z,42.24
2023-02-09T13:37:18.851Z,42.96
2023-02-09T13:39:45.628Z,43.29
2023-02-09T13:42:19.441Z,44.74
2023-02-09T13:44:46.757Z,45.15
2023-02-09T13:47:15.669Z,45.09
2023-02-09T13:49:43.175Z,45.04
2023-02-09T13:52:16.382Z,45.32
2023-02-09T13:54:43.477Z,45.15
2023-02-09T13:57:31.295Z,45.46
2023-02-09T14:00:08.688Z,45.05
2023-02-09T14:02:49.948Z,45.07
2023-02-09T14:05:43.726Z,45.20
2023-02-09T14:08:13.286Z,45.30
2023-02-09T14:10:41.612Z,45.31
2023-02-09T14:13:21.608Z,45.07
2023-02-09T14:16:09.639Z,44.81
2023-02-09T14:18:54.485Z,45.00
2023-02-09T14:21:20.819Z,45.58
2023-02-09T14:23:56.995Z,45.24
2023-02-09T14:26:27.820Z,45.76
2023-02-09T14:29:17.607Z,45.84
2023-02-09T14:31:47.320Z,46.36
2023-02-09T14:34:23.874Z,46.03
2023-02-09T14:36:53.535Z,46.32
2023-02-09T14:39:21.116Z,45.82
2023-02-09T14:42:17.955Z,46.77
2023-02-09T14:44:56.133Z,46.68
2023-02-09T14:47:34.745Z,45.84
2023-02-09T14:50:02.244Z,46.78
2023-02-09T14:52:31.470Z,46.32
2023-02-09T14:55:01.959Z,45.82
2023-02-09T14:57:32.099Z,46.27
2023-02-09T14:59:58.610Z,45.96
2023-02-09T15:02:27.525Z,45.84
2023-02-09T15:04:54.821Z,46.42
2023-02-09T15:07:34.973Z,46.66
2023-02-09T15:10:06.810Z,45.48
2023-02-09T15:12:33.887Z,44.42
2023-02-09T15:15:01.608Z,44.13
2023-02-09T15:17:30.430Z,43.31
2023-02-09T15:19:58.255Z,43.22
2023-02-09T15:22:24.915Z,42.47
2023-02-09T15:24:54.248Z,41.92
2023-02-09T15:27:28.734Z,40.86
2023-02-09T15:29:58.503Z,39.29
2023-02-09T15:32:26.930Z,36.17
2023-02-09T15:34:54.446Z,31.81
2023-02-09T15:37:25.318Z,28.59
2023-02-09T15:39:56.603Z,26.38
2023-02-09T15:42:41.485Z,25.91
2023-02-09T15:45:41.065Z,26.20
2023-02-09T15:48:08.257Z,26.83
2023-02-09T15:50:39.886Z,27.46
2023-02-09T15:53:14.691Z,28.53
2023-02-09T15:55:42.898Z,30.03
2023-02-09T15:58:15.069Z,31.72
2023-02-09T16:00:42.025Z,32.00
2023-02-09T16:03:15.620Z,33.33
2023-02-09T16:05:42.547Z,34.31
2023-02-09T16:08:18.868Z,35.42
2023-02-09T16:10:46.943Z,35.71
2023-02-09T16:13:18.827Z,35.90
2023-02-09T16:15:45.582Z,35.87
2023-02-09T16:18:12.066Z,36.02
2023-02-09T16:20:46.528Z,36.40
2023-02-09T16:23:20.589Z,38.01
2023-02-09T16:25:49.828Z,39.15
2023-02-09T16:28:16.897Z,41.66
2023-02-09T16:30:50.480Z,42.28
2023-02-09T16:33:17.428Z,43.61
2023-02-09T16:35:44.460Z,44.26
2023-02-09T16:38:19.153Z,45.40
2023-02-09T16:40:46.519Z,46.36
2023-02-09T16:43:13.305Z,47.17
2023-02-09T16:45:43.177Z,47.47
2023-02-09T16:48:25.374Z,48.43
2023-02-09T16:50:53.653Z,49.48
2023-02-09T16:53:36.589Z,49.54
2023-02-09T16:56:09.889Z,50.77
2023-02-09T16:58:37.280Z,51.34
2023-02-09T17:01:04.308Z,51.13
2023-02-09T17:03:39.248Z,52.11
2023-02-09T17:06:06.424Z,52.55
2023-02-09T17:08:34.682Z,53.46
2023-02-09T17:11:04.105Z,53.33
2023-02-09T17:13:31.246Z,54.42
2023-02-09T17:16:06.245Z,54.13
2023-02-09T17:18:38.911Z,54.54
2023-02-09T17:21:20.548Z,55.44
2023-02-09T17:23:47.281Z,55.04
2023-02-09T17:26:14.032Z,55.16
2023-02-09T17:28:42.956Z,55.86
2023-02-09T17:31:23.084Z,55.57
2023-02-09T17:33:56.681Z,55.79
2023-02-09T17:36:27.674Z,56.56
2023-02-09T17:38:56.843Z,57.13
2023-02-09T17:41:31.318Z,57.05
2023-02-09T17:44:20.819Z,57.14
2023-02-09T17:46:53.913Z,57.39
2023-02-09T17:49:20.364Z,58.07
2023-02-09T17:51:47.668Z,57.82
2023-02-09T17:54:16.501Z,58.42
2023-02-09T17:56:43.366Z,58.50
2023-02-09T17:59:10.009Z,59.29
2023-02-09T18:01:42.109Z,59.80
2023-02-09T18:04:16.900Z,59.12
2023-02-09T18:06:43.303Z,59.87
2023-02-09T18:09:14.330Z,59.36
2023-02-09T18:12:19.409Z,59.88
2023-02-09T18:14:45.847Z,59.93
2023-02-09T18:17:12.322Z,60.44
2023-02-09T18:19:38.733Z,60.25
2023-02-09T18:22:05.173Z,60.40
2023-02-09T18:24:34.140Z,60.73
2023-02-09T18:27:00.678Z,60.96
2023-02-09T18:29:29.488Z,61.41
2023-02-09T18:31:57.797Z,60.87
2023-02-09T18:34:24.657Z,61.47
2023-02-09T18:36:51.114Z,61.85
2023-02-09T18:39:17.569Z,61.91
2023-02-09T18:41:46.259Z,62.37
2023-02-09T18:44:12.709Z,62.30
2023-02-09T18:46:39.167Z,62.06
2023-02-09T18:49:05.595Z,62.55
2023-02-09T18:51:32.430Z,62.54
2023-02-09T18:54:00.164Z,62.97
2023-02-09T18:56:28.166Z,63.85
2023-02-09T18:58:54.794Z,63.49
2023-02-09T19:01:22.997Z,63.84
2023-02-09T19:03:54.078Z,63.75
2023-02-09T19:06:21.879Z,63.86
2023-02-09T19:08:50.318Z,63.79
2023-02-09T19:11:18.953Z,63.93
2023-02-09T19:14:05.625Z,63.91
2023-02-09T19:16:32.070Z,64.47
2023-02-09T19:18:59.112Z,64.58
2023-02-09T19:21:25.541Z,64.89
2023-02-09T19:23:53.900Z,64.65
2023-02-09T19:26:20.662Z,64.59
2023-02-09T19:28:48.182Z,65.11
2023-02-09T19:31:15.863Z,64.50
2023-02-09T19:33:42.318Z,64.94
2023-02-09T19:36:09.101Z,65.26
2023-02-09T19:38:35.521Z,65.51
2023-02-09T19:41:10.513Z,65.28
2023-02-09T19:43:39.197Z,65.85
2023-02-09T19:46:06.329Z,65.62
2023-02-09T19:48:33.040Z,66.17
2023-02-09T19:50:59.871Z,65.66
2023-02-09T19:53:26.875Z,65.72
2023-02-09T19:55:54.178Z,65.52
2023-02-09T19:58:21.721Z,65.62
2023-02-09T20:00:49.189Z,65.67
2023-02-09T20:03:16.161Z,65.72
2023-02-09T20:05:43.885Z,65.18
2023-02-09T20:08:13.644Z,65.34
2023-02-09T20:10:40.288Z,65.34
2023-02-09T20:13:07.174Z,65.38
2023-02-09T20:15:33.582Z,65.51
2023-02-09T20:18:00.007Z,65.17
2023-02-09T20:20:26.495Z,65.67
2023-02-09T20:22:53.762Z,65.38
2023-02-09T20:25:20.198Z,65.57
2023-02-09T20:27:48.650Z,66.47
2023-02-09T20:30:15.157Z,66.42
2023-02-09T20:32:41.640Z,66.36
2023-02-09T20:35:10.033Z,66.45
2023-02-09T20:37:36.738Z,66.40
2023-02-09T20:40:04.181Z,66.35
2023-02-09T20:42:48.945Z,66.52
2023-02-09T20:45:35.933Z,66.55
2023-02-09T20:48:04.093Z,66.66
2023-02-09T20:50:32.637Z,66.57
2023-02-09T20:53:01.331Z,66.96
2023-02-09T20:55:29.490Z,66.74
2023-02-09T20:57:56.094Z,66.60
2023-02-09T21:00:22.646Z,66.36
2023-02-09T21:02:49.219Z,66.47
2023-02-09T21:05:16.603Z,66.26
2023-02-09T21:07:43.158Z,66.53
2023-02-09T21:10:12.754Z,66.40
2023-02-09T21:12:39.148Z,66.37
2023-02-09T21:15:05.861Z,66.27
2023-02-09T21:17:32.300Z,66.24
2023-02-09T21:19:58.751Z,66.18
2023-02-09T21:22:25.124Z,66.04
2023-02-09T21:24:51.508Z,66.44
2023-02-09T21:27:17.956Z,66.30
2023-02-09T21:29:44.393Z,66.04
2023-02-09T21:32:11.098Z,66.28
2023-02-09T21:34:37.580Z,66.46
2023-02-09T21:37:07.683Z,66.39
2023-02-09T21:39:34.093Z,66.55
2023-02-09T21:42:19.175Z,66.43
2023-02-09T21:44:45.558Z,66.69
2023-02-09T21:47:12.073Z,66.48
2023-02-09T21:49:38.591Z,66.68
2023-02-09T21:52:05.402Z,66.10
2023-02-09T21:54:33.761Z,65.75
2023-02-09T21:57:03.616Z,66.07
2023-02-09T21:59:30.065Z,66.60
2023-02-09T22:01:56.646Z,66.64
2023-02-09T22:04:23.587Z,66.78
2023-02-09T22:06:50.047Z,66.64
2023-02-09T22:09:16.524Z,66.26
2023-02-09T22:11:42.958Z,66.46
2023-02-09T22:14:09.370Z,65.99
2023-02-09T22:16:35.895Z,66.28
2023-02-09T22:19:02.379Z,66.47
2023-02-09T22:21:28.813Z,66.74
2023-02-09T22:23:55.242Z,67.29
2023-02-09T22:26:21.918Z,67.83
2023-02-09T22:28:48.690Z,67.79
2023-02-09T22:31:17.602Z,67.72
2023-02-09T22:33:44.630Z,68.39
2023-02-09T22:36:13.799Z,67.91
2023-02-09T22:38:40.969Z,68.14
2023-02-09T22:41:21.422Z,68.01
2023-02-09T22:43:52.398Z,67.72
2023-02-09T22:46:20.493Z,67.57
2023-02-09T22:48:52.115Z,67.37
2023-02-09T22:51:18.868Z,67.29
2023-02-09T22:53:45.579Z,67.27
2023-02-09T22:56:12.860Z,67.09
2023-02-09T22:58:39.356Z,66.96
2023-02-09T23:01:06.885Z,67.12
2023-02-09T23:03:34.068Z,67.12
2023-02-09T23:06:02.264Z,67.42
2023-02-09T23:08:29.284Z,67.83
2023-02-09T23:11:02.017Z,67.84
2023-02-09T23:13:28.544Z,68.40
2023-02-09T23:15:54.953Z,68.36
2023-02-09T23:18:21.480Z,68.74
2023-02-09T23:20:48.985Z,68.75
2023-02-09T23:23:16.260Z,69.31
2023-02-09T23:25:42.777Z,68.99
2023-02-09T23:28:09.210Z,68.94
2023-02-09T23:30:35.686Z,69.42
2023-02-09T23:33:02.252Z,69.51
2023-02-09T23:35:28.732Z,69.59
2023-02-09T23:37:55.120Z,69.45
2023-02-09T23:40:21.500Z,69.55
2023-02-09T23:42:47.879Z,69.62
2023-02-09T23:45:14.401Z,69.49
2023-02-09T23:47:40.795Z,69.80
2023-02-09T23:50:07.292Z,69.84
2023-02-09T23:52:33.702Z,69.63
2023-02-09T23:55:00.232Z,69.96
2023-02-09T23:57:26.650Z,69.57
2023-02-09T23:59:53.059Z,69.41
